Time;durP1;ratioP1;P1;durP2;ratioP2;P2;SDS_P1;SDS_P2;PMS_P1;PMS_P2;Temp;Humidity;BMP_temperature;BMP_pressure;BME280_temperature;BME280_humidity;BME280_pressure;Samples;Min_cycle;Max_cycle;Signal;HPM_P1;HPM_P2
2023/01/08 00:01:48;;;;;;;;;;;16.00;60.00;;;;;;5152193;27;19923;-65
2023/01/08 00:04:14;;;;;;;;;;;16.60;58.40;;;;;;5171021;27;19923;-71
2023/01/08 00:06:40;;;;;;;;;;;17.20;57.30;;;;;;5171080;27;19941;-65
2023/01/08 00:09:05;;;;;;;;;;;17.90;55.40;;;;;;5152454;27;20374;-72
2023/01/08 00:11:31;;;;;;;;;;;18.70;53.90;;;;;;5152147;27;19919;-65
2023/01/08 00:13:56;;;;;;;;;;;19.40;52.20;;;;;;5161693;27;19926;-70
2023/01/08 00:16:22;;;;;;;;;;;20.20;50.60;;;;;;5138387;27;20020;-72
2023/01/08 00:18:47;;;;;;;;;;;20.80;49.30;;;;;;5157091;27;19919;-65
2023/01/08 00:21:13;;;;;;;;;;;21.30;48.20;;;;;;5138408;27;20000;-71
2023/01/08 00:23:39;;;;;;;;;;;21.80;47.00;;;;;;5156853;27;19972;-65
2023/01/08 00:26:06;;;;;;;;;;;22.20;46.40;;;;;;5156776;27;19919;-65
2023/01/08 00:28:31;;;;;;;;;;;22.40;45.80;;;;;;5138134;27;19919;-71
2023/01/08 00:30:57;;;;;;;;;;;22.50;45.70;;;;;;5138356;27;19919;-65
2023/01/08 00:33:23;;;;;;;;;;;22.60;45.30;;;;;;5138345;27;19918;-65
2023/01/08 00:35:48;;;;;;;;;;;22.60;45.50;;;;;;5156739;27;19923;-71
2023/01/08 00:38:14;;;;;;;;;;;22.50;45.50;;;;;;5137950;27;19978;-66
2023/01/08 00:40:40;;;;;;;;;;;22.40;45.50;;;;;;5137885;27;19919;-66
2023/01/08 00:43:06;;;;;;;;;;;22.30;45.60;;;;;;5156487;27;19923;-65
2023/01/08 00:45:31;;;;;;;;;;;22.20;45.50;;;;;;5156587;27;19925;-65
2023/01/08 00:47:57;;;;;;;;;;;22.10;45.40;;;;;;5137838;27;19919;-65
2023/01/08 00:50:23;;;;;;;;;;;21.90;45.90;;;;;;5156430;27;19926;-71
2023/01/08 00:52:48;;;;;;;;;;;21.80;46.00;;;;;;5137825;27;19919;-65
2023/01/08 00:55:14;;;;;;;;;;;21.60;46.00;;;;;;5156417;27;19934;-65
2023/01/08 00:57:39;;;;;;;;;;;21.50;46.40;;;;;;5137985;27;20278;-65
2023/01/08 01:00:07;;;;;;;;;;;21.30;46.90;;;;;;5137521;27;19919;-65
2023/01/08 01:02:33;;;;;;;;;;;21.10;47.10;;;;;;5133789;27;19938;-65
2023/01/08 01:04:59;;;;;;;;;;;20.90;47.60;;;;;;5135519;27;19920;-70
2023/01/08 01:07:24;;;;;;;;;;;20.70;48.10;;;;;;5135265;27;20019;-65
2023/01/08 01:09:50;;;;;;;;;;;20.50;48.40;;;;;;5134400;27;20044;-65
2023/01/08 01:12:15;;;;;;;;;;;20.30;48.80;;;;;;5135137;27;20332;-65
2023/01/08 01:14:41;;;;;;;;;;;20.10;48.80;;;;;;5134164;27;20553;-64
2023/01/08 01:17:06;;;;;;;;;;;20.00;49.20;;;;;;5134093;27;20404;-65
2023/01/08 01:19:32;;;;;;;;;;;19.80;49.40;;;;;;5133989;27;20401;-66
2023/01/08 01:21:58;;;;;;;;;;;19.70;49.60;;;;;;5135067;27;19949;-66
2023/01/08 01:24:24;;;;;;;;;;;19.50;50.00;;;;;;5133343;27;19926;-65
2023/01/08 01:26:50;;;;;;;;;;;19.40;50.30;;;;;;5133722;27;19923;-66
2023/01/08 01:29:16;;;;;;;;;;;19.30;50.50;;;;;;5133603;27;19927;-66
2023/01/08 01:31:41;;;;;;;;;;;19.10;50.60;;;;;;5133386;27;19920;-65
2023/01/08 01:34:07;;;;;;;;;;;19.00;50.90;;;;;;5135032;27;19920;-66
2023/01/08 01:36:33;;;;;;;;;;;18.90;51.20;;;;;;5134683;27;19942;-66
2023/01/08 01:38:58;;;;;;;;;;;18.80;51.20;;;;;;5133363;27;20374;-66
2023/01/08 01:44:29;;;;;;;;;;;18.60;51.80;;;;;;5127473;27;1867347;-70
2023/01/08 01:46:55;;;;;;;;;;;18.40;51.90;;;;;;5174413;27;19926;-65
2023/01/08 01:49:21;;;;;;;;;;;18.30;52.10;;;;;;5174323;27;19927;-65
2023/01/08 01:51:49;;;;;;;;;;;18.30;52.40;;;;;;5174568;27;19918;-64
2023/01/08 01:54:15;;;;;;;;;;;18.20;52.60;;;;;;5174590;27;19963;-65
2023/01/08 01:56:42;;;;;;;;;;;18.00;52.80;;;;;;5174515;27;20263;-65
2023/01/08 01:59:08;;;;;;;;;;;18.10;52.90;;;;;;5174160;27;19929;-68
2023/01/08 02:01:34;;;;;;;;;;;17.90;53.10;;;;;;5192949;27;19927;-70
2023/01/08 02:03:59;;;;;;;;;;;17.80;53.40;;;;;;5173974;27;20331;-64
2023/01/08 02:06:35;;;;;;;;;;;17.70;53.40;;;;;;5174123;27;19970;-70
2023/01/08 02:09:20;;;;;;;;;;;17.70;53.70;;;;;;5174291;27;19919;-65
2023/01/08 02:12:15;;;;;;;;;;;17.60;53.90;;;;;;5192470;27;20017;-71
2023/01/08 02:14:43;;;;;;;;;;;17.50;54.00;;;;;;5173742;27;19919;-65
2023/01/08 02:17:10;;;;;;;;;;;17.50;54.20;;;;;;5192629;27;19919;-64
2023/01/08 02:19:53;;;;;;;;;;;17.40;54.30;;;;;;5173746;27;19918;-71
2023/01/08 02:22:39;;;;;;;;;;;17.30;54.50;;;;;;5185834;27;19927;-65
2023/01/08 02:25:09;;;;;;;;;;;17.20;54.70;;;;;;5171268;27;19919;-71
2023/01/08 02:27:36;;;;;;;;;;;17.10;54.80;;;;;;5153150;27;19993;-70
2023/01/08 02:30:03;;;;;;;;;;;17.00;55.00;;;;;;5171382;27;19972;-65
2023/01/08 02:32:32;;;;;;;;;;;17.00;55.30;;;;;;5153042;27;19919;-66
2023/01/08 02:34:57;;;;;;;;;;;16.90;55.40;;;;;;5171341;27;19975;-65
2023/01/08 02:37:23;;;;;;;;;;;16.80;55.70;;;;;;5171460;27;20314;-65
2023/01/08 02:40:09;;;;;;;;;;;16.70;55.70;;;;;;5152501;27;20374;-65
2023/01/08 02:42:41;;;;;;;;;;;16.70;56.00;;;;;;5151993;27;20370;-65
2023/01/08 02:50:30;;;;;;;;;;;16.50;56.40;;;;;;5127623;27;1863748;-65
2023/01/08 02:55:37;;;;;;;;;;;16.40;56.60;;;;;;5089828;28;19928;-65
2023/01/08 02:58:04;;;;;;;;;;;16.30;56.70;;;;;;5088597;28;19920;-69
2023/01/08 03:00:30;;;;;;;;;;;16.30;56.90;;;;;;5089928;28;20322;-64
2023/01/08 03:03:00;;;;;;;;;;;16.20;56.90;;;;;;5088668;28;19920;-65
2023/01/08 03:05:27;;;;;;;;;;;16.20;57.00;;;;;;5088754;28;19920;-65
2023/01/08 03:07:53;;;;;;;;;;;16.20;57.10;;;;;;5088486;28;19920;-64
2023/01/08 03:10:21;;;;;;;;;;;16.20;57.20;;;;;;5088287;28;19925;-65
2023/01/08 03:12:51;;;;;;;;;;;16.10;57.20;;;;;;5088653;28;19927;-65
2023/01/08 03:15:21;;;;;;;;;;;16.10;57.30;;;;;;5089445;28;19924;-65
2023/01/08 03:17:49;;;;;;;;;;;16.10;57.40;;;;;;5089697;28;19927;-65
2023/01/08 03:20:15;;;;;;;;;;;16.00;57.50;;;;;;5089376;28;20425;-65
2023/01/08 03:22:43;;;;;;;;;;;16.00;57.50;;;;;;5089421;28;20404;-65
2023/01/08 03:25:09;;;;;;;;;;;16.00;57.60;;;;;;5089356;28;20040;-65
2023/01/08 03:27:37;;;;;;;;;;;16.00;57.70;;;;;;5088011;28;20398;-70
2023/01/08 03:30:03;;;;;;;;;;;16.00;57.80;;;;;;5088014;28;19927;-71
2023/01/08 03:32:30;;;;;;;;;;;15.90;57.80;;;;;;5089336;28;19924;-65
2023/01/08 03:34:56;;;;;;;;;;;15.90;57.90;;;;;;5089130;28;20265;-65
2023/01/08 03:37:24;;;;;;;;;;;15.90;58.00;;;;;;5088142;28;19959;-65
2023/01/08 03:42:37;;;;;;;;;;;15.80;58.20;;;;;;5089932;28;19912;-65
2023/01/08 03:45:03;;;;;;;;;;;15.80;58.30;;;;;;5089927;28;20283;-65
2023/01/08 03:47:30;;;;;;;;;;;15.70;58.30;;;;;;5088580;28;20439;-66
2023/01/08 03:49:56;;;;;;;;;;;15.70;58.40;;;;;;5089859;28;20288;-70
2023/01/08 03:52:23;;;;;;;;;;;15.70;58.50;;;;;;5088352;28;19921;-64
2023/01/08 03:54:49;;;;;;;;;;;15.70;58.60;;;;;;5089945;28;20448;-65
2023/01/08 03:57:14;;;;;;;;;;;15.60;58.60;;;;;;5105374;28;19920;-65
2023/01/08 03:59:40;;;;;;;;;;;15.60;58.70;;;;;;5088580;28;19920;-65
2023/01/08 04:02:05;;;;;;;;;;;15.60;58.80;;;;;;5088143;28;19950;-65
2023/01/08 04:04:31;;;;;;;;;;;15.60;58.80;;;;;;5089608;28;19927;-65
2023/01/08 04:06:56;;;;;;;;;;;15.60;58.90;;;;;;5088419;28;20303;-65
2023/01/08 04:09:22;;;;;;;;;;;15.60;58.90;;;;;;5088477;28;19927;-64
2023/01/08 04:11:47;;;;;;;;;;;15.50;58.90;;;;;;5089321;28;19924;-64
2023/01/08 04:14:13;;;;;;;;;;;15.50;59.10;;;;;;5088092;28;19920;-65
2023/01/08 04:16:38;;;;;;;;;;;15.50;59.20;;;;;;5088073;28;19935;-70
2023/01/08 04:19:04;;;;;;;;;;;15.40;59.20;;;;;;5089133;28;19927;-71
2023/01/08 04:21:29;;;;;;;;;;;15.40;60.00;;;;;;5087615;28;19928;-71
2023/01/08 04:23:55;;;;;;;;;;;15.40;59.40;;;;;;5087999;28;20007;-71
2023/01/08 04:26:20;;;;;;;;;;;15.40;59.50;;;;;;5087916;28;19923;-66
2023/01/08 04:28:46;;;;;;;;;;;15.40;59.60;;;;;;5087563;28;19967;-66
2023/01/08 04:31:11;;;;;;;;;;;15.40;59.60;;;;;;5087733;28;19916;-66
2023/01/08 04:33:37;;;;;;;;;;;15.40;59.60;;;;;;5087714;28;19920;-65
2023/01/08 04:36:03;;;;;;;;;;;15.30;59.70;;;;;;5088839;28;20345;-66
2023/01/08 04:38:29;;;;;;;;;;;15.30;59.70;;;;;;5087521;28;19971;-65
2023/01/08 04:40:57;;;;;;;;;;;15.30;59.70;;;;;;5094709;28;19989;-65
2023/01/08 04:43:22;;;;;;;;;;;15.30;59.70;;;;;;5090805;28;19916;-65
2023/01/08 04:45:48;;;;;;;;;;;15.30;59.70;;;;;;5109067;28;19922;-65
2023/01/08 04:48:14;;;;;;;;;;;15.30;59.70;;;;;;5090947;28;19920;-65
2023/01/08 04:50:39;;;;;;;;;;;15.30;59.70;;;;;;5108876;28;20256;-65
2023/01/08 04:53:04;;;;;;;;;;;15.30;59.70;;;;;;5081791;28;19916;-65
2023/01/08 04:55:30;;;;;;;;;;;15.30;59.70;;;;;;5095052;28;19920;-66
2023/01/08 04:57:55;;;;;;;;;;;15.30;59.80;;;;;;5095177;28;20244;-70
2023/01/08 05:00:21;;;;;;;;;;;15.30;59.80;;;;;;5095029;28;19916;-65
2023/01/08 05:02:47;;;;;;;;;;;15.30;59.80;;;;;;5095299;28;20374;-65
2023/01/08 05:05:12;;;;;;;;;;;15.30;59.90;;;;;;5076886;28;20285;-65
2023/01/08 05:07:38;;;;;;;;;;;15.30;59.90;;;;;;5076942;28;19922;-70
2023/01/08 05:10:04;;;;;;;;;;;15.30;59.90;;;;;;5076902;28;19940;-66
2023/01/08 05:12:29;;;;;;;;;;;15.30;59.90;;;;;;5076720;28;19916;-65
2023/01/08 05:14:55;;;;;;;;;;;15.30;59.90;;;;;;5094990;28;19920;-70
2023/01/08 05:17:20;;;;;;;;;;;15.30;59.90;;;;;;5094654;28;19922;-66
2023/01/08 05:19:46;;;;;;;;;;;15.30;60.00;;;;;;5076642;28;19923;-65
2023/01/08 05:22:11;;;;;;;;;;;15.30;60.00;;;;;;5094862;28;19920;-65
2023/01/08 05:24:37;;;;;;;;;;;15.20;59.90;;;;;;5076419;28;19926;-65
2023/01/08 05:27:03;;;;;;;;;;;15.20;59.90;;;;;;5076534;28;19931;-71
2023/01/08 05:29:28;;;;;;;;;;;15.20;59.90;;;;;;5094558;28;19920;-66
2023/01/08 05:31:54;;;;;;;;;;;15.20;60.00;;;;;;5076772;28;20011;-66
2023/01/08 05:34:19;;;;;;;;;;;15.20;60.00;;;;;;5076322;28;19924;-71
2023/01/08 05:36:45;;;;;;;;;;;15.20;60.00;;;;;;5076371;28;20062;-71
2023/01/08 05:39:10;;;;;;;;;;;15.20;60.00;;;;;;5076205;28;20364;-66
2023/01/08 05:41:36;;;;;;;;;;;15.30;60.00;;;;;;5075655;28;19924;-66
2023/01/08 05:44:01;;;;;;;;;;;15.30;60.10;;;;;;5076480;28;20253;-65
2023/01/08 05:46:27;;;;;;;;;;;15.20;60.00;;;;;;5094223;28;20295;-66
2023/01/08 05:48:52;;;;;;;;;;;15.20;60.00;;;;;;5094176;28;20372;-71
2023/01/08 05:51:18;;;;;;;;;;;15.20;60.00;;;;;;5076056;28;19920;-66
2023/01/08 05:53:43;;;;;;;;;;;15.20;60.00;;;;;;5075837;28;19927;-65
2023/01/08 05:56:10;;;;;;;;;;;15.20;60.00;;;;;;5075558;28;19924;-71
2023/01/08 05:58:36;;;;;;;;;;;15.20;60.00;;;;;;5075903;28;19928;-66
2023/01/08 06:01:03;;;;;;;;;;;15.20;60.10;;;;;;5092403;28;19924;-65
2023/01/08 06:03:29;;;;;;;;;;;15.10;60.10;;;;;;5093712;28;19916;-66
2023/01/08 06:06:03;;;;;;;;;;;15.20;60.20;;;;;;5075424;28;20406;-65
2023/01/08 06:08:29;;;;;;;;;;;15.10;60.20;;;;;;5093883;28;19966;-65
2023/01/08 06:10:58;;;;;;;;;;;15.20;60.20;;;;;;5093808;28;19916;-65
2023/01/08 06:13:23;;;;;;;;;;;15.20;60.20;;;;;;5094265;28;20322;-65
2023/01/08 06:15:49;;;;;;;;;;;15.10;60.20;;;;;;5075491;28;20011;-65
2023/01/08 06:18:14;;;;;;;;;;;15.10;60.20;;;;;;5075860;28;19920;-66
2023/01/08 06:20:40;;;;;;;;;;;15.10;60.20;;;;;;5074849;28;19924;-65
2023/01/08 06:23:07;;;;;;;;;;;15.10;60.20;;;;;;5075389;28;20011;-65
2023/01/08 06:25:33;;;;;;;;;;;15.10;60.20;;;;;;5075368;28;19926;-65
2023/01/08 06:27:58;;;;;;;;;;;15.10;60.30;;;;;;5093767;28;19920;-65
2023/01/08 06:30:24;;;;;;;;;;;15.10;60.20;;;;;;5075372;28;19959;-66
2023/01/08 06:32:53;;;;;;;;;;;15.10;60.30;;;;;;5075533;28;20030;-66
2023/01/08 06:35:19;;;;;;;;;;;15.10;60.30;;;;;;5093402;28;20014;-66
2023/01/08 06:37:44;;;;;;;;;;;15.10;60.30;;;;;;5093286;28;20447;-66
2023/01/08 06:40:10;;;;;;;;;;;15.10;60.30;;;;;;5093062;28;19973;-65
2023/01/08 06:42:36;;;;;;;;;;;15.10;61.00;;;;;;5074939;28;20019;-66
2023/01/08 06:45:01;;;;;;;;;;;15.10;60.30;;;;;;5093443;28;19920;-71
2023/01/08 06:47:27;;;;;;;;;;;15.10;60.30;;;;;;5074958;28;20425;-66
2023/01/08 06:49:52;;;;;;;;;;;15.10;60.30;;;;;;5093132;28;19920;-66
2023/01/08 06:52:18;;;;;;;;;;;15.10;60.30;;;;;;5075251;28;19920;-66
2023/01/08 06:54:43;;;;;;;;;;;15.00;60.30;;;;;;5093053;28;20364;-65
2023/01/08 06:57:09;;;;;;;;;;;15.00;60.30;;;;;;5074755;28;19931;-65
2023/01/08 06:59:34;;;;;;;;;;;15.00;60.30;;;;;;5074820;28;19924;-66
2023/01/08 07:02:00;;;;;;;;;;;15.00;60.40;;;;;;5074735;28;19923;-65
2023/01/08 07:04:25;;;;;;;;;;;15.00;60.40;;;;;;5092832;28;19920;-66
2023/01/08 07:06:51;;;;;;;;;;;15.00;60.40;;;;;;5074772;28;19928;-66
2023/01/08 07:09:17;;;;;;;;;;;15.00;60.40;;;;;;5092867;28;19920;-66
2023/01/08 07:11:42;;;;;;;;;;;15.00;60.40;;;;;;5074682;28;19927;-66
2023/01/08 07:14:08;;;;;;;;;;;15.00;60.40;;;;;;5074790;28;19920;-72
2023/01/08 07:16:34;;;;;;;;;;;15.00;60.40;;;;;;5092481;28;20026;-72
2023/01/08 07:18:59;;;;;;;;;;;15.00;60.40;;;;;;5074523;28;19974;-66
2023/01/08 07:21:25;;;;;;;;;;;15.00;60.40;;;;;;5074370;28;19956;-66
2023/01/08 07:23:50;;;;;;;;;;;15.00;60.40;;;;;;5074734;28;19927;-66
2023/01/08 07:26:16;;;;;;;;;;;15.00;60.50;;;;;;5092682;28;20303;-66
2023/01/08 07:28:42;;;;;;;;;;;15.00;60.50;;;;;;5092383;28;20379;-66
2023/01/08 07:31:08;;;;;;;;;;;14.90;60.40;;;;;;5074756;28;19920;-66
2023/01/08 07:33:34;;;;;;;;;;;14.90;60.50;;;;;;5074354;28;19920;-66
2023/01/08 07:36:00;;;;;;;;;;;14.90;60.60;;;;;;5074647;28;19931;-66
2023/01/08 07:38:25;;;;;;;;;;;14.90;60.60;;;;;;5074336;28;19920;-66
2023/01/08 07:40:51;;;;;;;;;;;14.90;60.60;;;;;;5073970;28;19924;-71
2023/01/08 07:43:16;;;;;;;;;;;14.90;60.60;;;;;;5092361;28;19920;-66
2023/01/08 07:45:42;;;;;;;;;;;14.90;60.60;;;;;;5092505;28;20390;-66
2023/01/08 07:48:09;;;;;;;;;;;14.80;60.60;;;;;;5092546;28;19927;-66
2023/01/08 07:50:35;;;;;;;;;;;14.90;60.70;;;;;;5092452;28;20478;-72
2023/01/08 07:53:01;;;;;;;;;;;14.80;60.70;;;;;;5074551;28;19920;-66
2023/01/08 07:55:27;;;;;;;;;;;14.80;60.80;;;;;;5092350;28;20338;-72
2023/01/08 07:57:53;;;;;;;;;;;14.80;60.80;;;;;;5074404;28;19942;-71
2023/01/08 08:00:18;;;;;;;;;;;14.80;60.80;;;;;;5074023;28;19920;-66
2023/01/08 08:02:44;;;;;;;;;;;14.80;60.80;;;;;;5074169;28;19920;-66
2023/01/08 08:05:09;;;;;;;;;;;14.80;60.80;;;;;;5074038;28;19970;-66
2023/01/08 08:07:35;;;;;;;;;;;14.80;60.90;;;;;;5092226;28;19981;-66
2023/01/08 08:10:01;;;;;;;;;;;14.80;60.90;;;;;;5074325;28;19990;-66
2023/01/08 08:12:27;;;;;;;;;;;14.70;60.90;;;;;;5092248;28;19920;-70
2023/01/08 08:14:52;;;;;;;;;;;14.70;60.90;;;;;;5074015;28;20069;-66
2023/01/08 08:17:18;;;;;;;;;;;14.70;61.00;;;;;;5073991;28;20045;-72
2023/01/08 08:19:44;;;;;;;;;;;14.70;61.00;;;;;;5092149;28;19966;-66
2023/01/08 08:22:10;;;;;;;;;;;14.70;61.00;;;;;;5091981;28;20001;-66
2023/01/08 08:24:35;;;;;;;;;;;14.70;61.00;;;;;;5074219;28;19920;-67
2023/01/08 08:27:01;;;;;;;;;;;14.70;61.10;;;;;;5073891;28;19920;-71
2023/01/08 08:29:26;;;;;;;;;;;14.70;61.10;;;;;;5077566;28;19920;-66
2023/01/08 08:31:52;;;;;;;;;;;14.70;61.10;;;;;;5077601;28;19920;-72
2023/01/08 08:34:19;;;;;;;;;;;14.60;61.10;;;;;;5077552;28;19924;-66
2023/01/08 08:36:45;;;;;;;;;;;14.70;61.20;;;;;;5077466;28;19920;-66
2023/01/08 08:39:10;;;;;;;;;;;14.60;61.10;;;;;;5077488;28;19969;-65
2023/01/08 08:41:36;;;;;;;;;;;14.60;61.10;;;;;;5077193;28;19974;-66
2023/01/08 08:44:01;;;;;;;;;;;14.60;61.10;;;;;;5095629;28;20299;-66
2023/01/08 08:46:27;;;;;;;;;;;14.60;61.20;;;;;;5077655;28;20359;-66
2023/01/08 08:48:53;;;;;;;;;;;14.60;61.20;;;;;;5095691;28;20273;-65
2023/01/08 08:51:18;;;;;;;;;;;14.60;61.20;;;;;;5077482;28;19990;-66
2023/01/08 08:53:44;;;;;;;;;;;14.60;61.20;;;;;;5095396;28;20027;-66
2023/01/08 08:56:09;;;;;;;;;;;14.60;61.20;;;;;;5077200;28;20057;-66
2023/01/08 08:58:35;;;;;;;;;;;14.60;61.20;;;;;;5095227;28;19920;-66
2023/01/08 09:01:02;;;;;;;;;;;14.60;61.20;;;;;;5095126;28;20019;-66
2023/01/08 09:03:28;;;;;;;;;;;14.60;61.30;;;;;;5077319;28;20283;-66
2023/01/08 09:05:53;;;;;;;;;;;14.60;61.20;;;;;;5077029;28;19920;-66
2023/01/08 09:08:19;;;;;;;;;;;14.60;61.20;;;;;;5095113;28;20004;-66
2023/01/08 09:10:44;;;;;;;;;;;14.60;61.20;;;;;;5095079;28;19924;-66
2023/01/08 09:13:10;;;;;;;;;;;14.60;61.20;;;;;;5077075;28;19920;-66
2023/01/08 09:15:36;;;;;;;;;;;14.50;61.20;;;;;;5094941;28;19930;-66
2023/01/08 09:18:01;;;;;;;;;;;14.50;61.20;;;;;;5094812;28;19974;-66
2023/01/08 09:20:27;;;;;;;;;;;14.50;61.20;;;;;;5076943;28;20372;-66
2023/01/08 09:22:53;;;;;;;;;;;14.60;61.30;;;;;;5094796;28;19927;-73
2023/01/08 09:25:18;;;;;;;;;;;14.50;61.20;;;;;;5076944;28;19920;-66
2023/01/08 09:27:44;;;;;;;;;;;14.50;61.20;;;;;;5076533;28;20437;-66
2023/01/08 09:30:10;;;;;;;;;;;14.60;61.20;;;;;;5076637;28;19931;-66
2023/01/08 09:32:37;;;;;;;;;;;14.50;61.20;;;;;;5076719;28;19921;-66
2023/01/08 09:35:03;;;;;;;;;;;14.50;61.20;;;;;;5076484;28;20299;-72
2023/01/08 09:37:29;;;;;;;;;;;14.50;61.20;;;;;;5094469;28;20471;-66
2023/01/08 09:39:54;;;;;;;;;;;14.50;61.20;;;;;;5094571;28;20015;-73
2023/01/08 09:42:21;;;;;;;;;;;14.50;61.20;;;;;;5094205;28;20284;-66
2023/01/08 09:44:48;;;;;;;;;;;14.50;61.20;;;;;;5076265;28;19927;-66
2023/01/08 09:47:21;;;;;;;;;;;14.50;61.90;;;;;;5094376;28;20006;-66
2023/01/08 09:49:47;;;;;;;;;;;14.50;61.20;;;;;;5076082;28;19920;-72
2023/01/08 09:52:13;;;;;;;;;;;14.50;61.20;;;;;;5076109;28;19928;-72
2023/01/08 09:54:39;;;;;;;;;;;14.50;61.20;;;;;;5076344;28;20283;-72
2023/01/08 09:57:05;;;;;;;;;;;14.50;61.20;;;;;;5094251;28;20014;-66
2023/01/08 09:59:31;;;;;;;;;;;14.50;61.20;;;;;;5094095;28;19962;-71
2023/01/08 10:01:57;;;;;;;;;;;14.50;61.20;;;;;;5093958;28;20379;-66
2023/01/08 10:04:25;;;;;;;;;;;14.50;61.20;;;;;;5093980;28;19924;-66
2023/01/08 10:06:54;;;;;;;;;;;14.50;61.20;;;;;;5075846;28;20402;-66
2023/01/08 10:09:25;;;;;;;;;;;14.50;61.20;;;;;;5075814;28;19927;-69
2023/01/08 10:11:51;;;;;;;;;;;14.50;61.10;;;;;;5075838;28;20007;-66
2023/01/08 10:14:21;;;;;;;;;;;14.50;61.10;;;;;;5093833;28;19920;-65
2023/01/08 10:16:49;;;;;;;;;;;14.50;61.10;;;;;;5093758;28;20010;-66
2023/01/08 10:19:14;;;;;;;;;;;14.40;61.10;;;;;;5075086;28;20015;-66
2023/01/08 10:21:40;;;;;;;;;;;14.40;61.00;;;;;;5074900;28;20086;-72
2023/01/08 10:24:06;;;;;;;;;;;14.50;61.00;;;;;;5075337;28;19923;-66
2023/01/08 10:26:35;;;;;;;;;;;14.50;61.00;;;;;;5093616;28;19916;-66
2023/01/08 10:29:11;;;;;;;;;;;14.40;61.00;;;;;;5075282;28;19916;-66
2023/01/08 10:31:43;;;;;;;;;;;14.50;61.00;;;;;;5093675;28;19920;-66
2023/01/08 10:34:09;;;;;;;;;;;14.40;61.00;;;;;;5093497;28;19952;-66
2023/01/08 10:36:38;;;;;;;;;;;14.40;61.00;;;;;;5093202;28;19916;-66
2023/01/08 10:39:04;;;;;;;;;;;14.90;61.00;;;;;;5075034;28;19954;-66
2023/01/08 10:41:35;;;;;;;;;;;15.10;60.30;;;;;;5092672;28;20493;-66
2023/01/08 10:44:03;;;;;;;;;;;15.50;59.60;;;;;;5075379;28;20391;-66
2023/01/08 10:49:19;;;;;;;;;;;16.60;57.50;;;;;;5130775;27;20006;-65
2023/01/08 10:51:49;;;;;;;;;;;17.30;55.80;;;;;;5116176;28;19920;-70
2023/01/08 10:54:25;;;;;;;;;;;17.90;54.30;;;;;;5110201;28;19947;-65
2023/01/08 10:56:51;;;;;;;;;;;18.70;52.60;;;;;;5108802;28;19916;-70
2023/01/08 10:59:20;;;;;;;;;;;19.50;50.80;;;;;;5108940;28;19927;-71
2023/01/08 11:01:47;;;;;;;;;;;20.20;49.30;;;;;;5108483;28;19920;-66
2023/01/08 11:04:20;;;;;;;;;;;21.00;47.70;;;;;;5109020;28;19920;-65
2023/01/08 11:06:46;;;;;;;;;;;21.50;46.50;;;;;;5108815;28;19924;-65
2023/01/08 11:09:29;;;;;;;;;;;22.00;45.70;;;;;;5109112;28;19942;-65
2023/01/08 11:11:55;;;;;;;;;;;22.40;44.90;;;;;;5109575;28;19924;-70
2023/01/08 11:14:38;;;;;;;;;;;22.60;44.40;;;;;;5108694;28;19954;-65
2023/01/08 11:17:11;;;;;;;;;;;22.80;44.10;;;;;;5108165;28;19959;-65
2023/01/08 11:19:38;;;;;;;;;;;22.90;43.50;;;;;;5108448;28;19995;-71
2023/01/08 11:22:15;;;;;;;;;;;22.90;43.40;;;;;;5108575;28;19959;-65
2023/01/08 11:24:41;;;;;;;;;;;22.90;43.50;;;;;;5109577;28;19915;-65
2023/01/08 11:27:09;;;;;;;;;;;22.80;43.70;;;;;;5108204;28;19920;-65
2023/01/08 11:34:56;;;;;;;;;;;22.40;43.70;;;;;;5127356;27;1865856;-65
2023/01/08 11:37:24;;;;;;;;;;;22.30;44.10;;;;;;5174142;27;19928;-65
2023/01/08 11:39:52;;;;;;;;;;;22.10;44.30;;;;;;5174150;27;19967;-65
2023/01/08 11:42:37;;;;;;;;;;;22.00;44.60;;;;;;5174445;27;19919;-71
2023/01/08 11:47:58;;;;;;;;;;;21.60;45.50;;;;;;5110181;27;20393;-65
2023/01/08 11:50:27;;;;;;;;;;;21.30;45.50;;;;;;5110114;28;20027;-66
2023/01/08 11:53:01;;;;;;;;;;;21.20;46.00;;;;;;5110061;28;19920;-65
2023/01/08 12:00:52;;;;;;;;;;;20.60;47.20;;;;;;5127343;27;1868381;-70
2023/01/08 12:03:38;;;;;;;;;;;20.30;47.30;;;;;;5174244;27;20037;-65
2023/01/08 12:11:35;;;;;;;;;;;19.80;48.10;;;;;;5110264;27;20061;-67
2023/01/08 12:14:21;;;;;;;;;;;19.60;48.40;;;;;;5110020;28;19916;-66
2023/01/08 12:16:58;;;;;;;;;;;19.50;48.70;;;;;;5108535;28;19927;-65
2023/01/08 12:19:37;;;;;;;;;;;19.30;48.80;;;;;;5108524;28;19964;-65
2023/01/08 12:30:15;;;;;;;;;;;18.90;49.80;;;;;;5089919;28;19913;-72
2023/01/08 12:32:42;;;;;;;;;;;18.80;50.00;;;;;;5088682;28;20368;-66
2023/01/08 12:35:12;;;;;;;;;;;18.70;50.20;;;;;;5088479;28;20011;-66
2023/01/08 12:40:26;;;;;;;;;;;18.50;50.50;;;;;;5110224;27;19934;-65
2023/01/08 12:42:51;;;;;;;;;;;18.40;50.60;;;;;;5108968;28;19920;-65
2023/01/08 12:45:25;;;;;;;;;;;18.30;50.80;;;;;;5109262;28;19920;-65
2023/01/08 12:47:57;;;;;;;;;;;18.20;51.00;;;;;;5108897;28;19920;-71
2023/01/08 12:53:23;;;;;;;;;;;18.10;51.40;;;;;;5089981;28;19917;-65
2023/01/08 12:55:58;;;;;;;;;;;18.00;51.50;;;;;;5088289;28;19924;-65
2023/01/08 13:01:14;;;;;;;;;;;17.90;51.90;;;;;;5089894;28;19940;-65
2023/01/08 13:03:41;;;;;;;;;;;17.80;52.00;;;;;;5088935;28;19970;-65
2023/01/08 13:06:12;;;;;;;;;;;17.70;52.10;;;;;;5088685;28;19920;-71
2023/01/08 13:08:39;;;;;;;;;;;17.60;52.30;;;;;;5089838;28;20403;-65
2023/01/08 13:11:05;;;;;;;;;;;17.60;52.50;;;;;;5088483;28;19972;-65
2023/01/08 13:21:31;;;;;;;;;;;17.30;53.20;;;;;;5127415;27;1868945;-65
2023/01/08 13:24:00;;;;;;;;;;;17.20;54.10;;;;;;5174679;27;19919;-65
2023/01/08 13:26:34;;;;;;;;;;;17.10;53.50;;;;;;5174729;27;19998;-65
2023/01/08 13:29:19;;;;;;;;;;;17.00;53.60;;;;;;5193187;27;19941;-67
2023/01/08 13:31:45;;;;;;;;;;;17.00;53.80;;;;;;5174437;27;19923;-65
2023/01/08 13:34:19;;;;;;;;;;;16.90;53.90;;;;;;5174245;27;19968;-65
2023/01/08 13:36:54;;;;;;;;;;;16.80;54.10;;;;;;5174404;27;19918;-65
2023/01/08 13:39:22;;;;;;;;;;;16.70;54.20;;;;;;5174362;27;20025;-71
2023/01/08 13:44:39;;;;;;;;;;;16.60;54.50;;;;;;5127289;27;1873215;-65
2023/01/08 13:47:14;;;;;;;;;;;16.60;54.60;;;;;;5174454;27;19922;-66
2023/01/08 13:49:41;;;;;;;;;;;16.50;54.70;;;;;;5174756;27;19918;-65
2023/01/08 13:52:25;;;;;;;;;;;16.50;54.80;;;;;;5174585;27;19922;-65
2023/01/08 13:54:51;;;;;;;;;;;16.50;54.90;;;;;;5174599;27;19925;-65
2023/01/08 13:57:18;;;;;;;;;;;16.50;55.00;;;;;;5174133;27;20017;-65
2023/01/08 13:59:48;;;;;;;;;;;16.50;55.10;;;;;;5174531;27;19922;-65
2023/01/08 14:02:23;;;;;;;;;;;16.40;55.10;;;;;;5174308;27;19988;-66
2023/01/08 14:04:49;;;;;;;;;;;16.40;55.20;;;;;;5174113;27;19919;-65
2023/01/08 14:07:15;;;;;;;;;;;16.30;55.20;;;;;;5174361;27;19919;-71
2023/01/08 14:09:41;;;;;;;;;;;16.30;55.30;;;;;;5192741;27;19918;-65
2023/01/08 14:12:10;;;;;;;;;;;16.30;55.30;;;;;;5174479;27;19929;-71
2023/01/08 14:14:37;;;;;;;;;;;16.20;55.40;;;;;;5192812;27;19918;-65
2023/01/08 14:17:03;;;;;;;;;;;16.20;55.70;;;;;;5173766;27;19919;-65
2023/01/08 14:19:28;;;;;;;;;;;16.20;55.50;;;;;;5192508;27;19925;-65
2023/01/08 14:21:56;;;;;;;;;;;16.10;55.60;;;;;;5192542;27;20344;-65
2023/01/08 14:24:23;;;;;;;;;;;16.10;55.70;;;;;;5156259;27;19922;-65
2023/01/08 14:26:52;;;;;;;;;;;16.10;55.70;;;;;;5173618;27;19971;-71
2023/01/08 14:29:19;;;;;;;;;;;16.10;55.70;;;;;;5173932;27;19964;-71
2023/01/08 14:31:46;;;;;;;;;;;16.10;55.80;;;;;;5173522;27;20439;-72
2023/01/08 14:34:13;;;;;;;;;;;16.00;55.90;;;;;;5173852;27;19919;-72
2023/01/08 14:36:39;;;;;;;;;;;16.00;56.00;;;;;;5173568;27;19918;-66
2023/01/08 14:39:20;;;;;;;;;;;16.00;56.00;;;;;;5192123;27;20353;-71
2023/01/08 14:44:32;;;;;;;;;;;15.90;56.20;;;;;;5191692;27;20001;-65
2023/01/08 14:46:57;;;;;;;;;;;15.90;56.20;;;;;;5192148;27;20010;-65
2023/01/08 14:49:25;;;;;;;;;;;15.80;56.30;;;;;;5191989;27;19971;-71
2023/01/08 14:51:51;;;;;;;;;;;15.80;56.40;;;;;;5191928;27;19986;-65
2023/01/08 14:54:19;;;;;;;;;;;15.80;56.40;;;;;;5187291;27;20366;-71
2023/01/08 14:56:47;;;;;;;;;;;15.80;56.40;;;;;;5178080;27;20319;-65
2023/01/08 14:59:15;;;;;;;;;;;15.80;56.50;;;;;;5177774;27;19926;-65
2023/01/08 15:01:41;;;;;;;;;;;15.80;56.50;;;;;;5159498;27;19926;-65
2023/01/08 15:04:13;;;;;;;;;;;15.70;56.60;;;;;;5158767;27;20294;-65
2023/01/08 15:06:39;;;;;;;;;;;15.70;56.60;;;;;;5159049;27;19919;-65
2023/01/08 15:09:18;;;;;;;;;;;15.70;56.60;;;;;;5158941;27;20002;-65
2023/01/08 15:11:53;;;;;;;;;;;15.70;56.60;;;;;;5159287;27;20392;-71
2023/01/08 15:14:21;;;;;;;;;;;15.70;56.70;;;;;;5158836;27;19919;-65
2023/01/08 15:16:47;;;;;;;;;;;15.70;56.70;;;;;;5159017;27;20327;-65
2023/01/08 15:19:15;;;;;;;;;;;15.70;56.70;;;;;;5177305;27;19967;-65
2023/01/08 15:21:48;;;;;;;;;;;15.60;56.70;;;;;;5159033;27;20380;-65
2023/01/08 15:24:23;;;;;;;;;;;15.60;56.70;;;;;;5158527;27;19923;-71